Flight Track Log - Related Links

Times and Time Zones

All times are in EDT time to prevent confusion due to time zone crossing. See the FLG4262 flight status page for this flight to view local times or setup timezone preferences in your user account.

Time Position Orientation Groundspeed Altitude Reporting Facility
EDT Latitude Longitude Course Direction KTS MPH feet Rate Location/Type
Tue 04:31:05 PM 42.2036 -83.3725 84° East 162 186 1,300  Level Cleveland Center
Tue 04:32:24 PM 42.1303 -83.3706 179° South 227 261 3,600 1,983 Climbing Cleveland Center
Tue 04:33:06 PM 42.0869 -83.3667 176° South 231 266 5,300 2,262 Climbing Cleveland Center
Tue 04:33:25 PM 42.0647 -83.3528 155° Southeast 259 298 5,900 2,226 Climbing Cleveland Center
Tue 04:34:08 PM 42.0544 -83.2894 102° East 272 313 7,600 2,557 Climbing Cleveland Center
Tue 04:34:26 PM 42.0658 -83.2572 65° Northeast 281 323 8,500 2,129 Climbing Cleveland Center
Tue 04:35:00 PM 42.2334 -82.6120 94° East  Level Estimated
Tue 04:35:10 PM 42.0858 -83.2025 64° Northeast 285 328 9,800  Level Cleveland Center
Tue 04:36:00 PM 42.2457 -82.4646 84° East  Level FlightAware Approximate
Tue 04:36:12 PM 42.1353 -83.0733 63° Northeast 335 386 11,300  Level Cleveland Center
Tue 04:37:14 PM 42.1775 -82.9614 63° Northeast 339 390 13,300 1,500 Climbing Cleveland Center
Tue 04:38:16 PM 42.2206 -82.8450 63° Northeast 348 400 14,400 1,258 Climbing Cleveland Center
Tue 04:39:18 PM 42.2664 -82.7206 64° Northeast 369 425 15,900 1,452 Climbing Cleveland Center
Tue 04:40:20 PM 42.3128 -82.5981 63° Northeast 369 425 17,400 1,403 Climbing Cleveland Center
Tue 04:41:22 PM 42.3642 -82.4444 66° East 374 430 18,800 1,161 Climbing Cleveland Center
Tue 04:42:24 PM 42.3608 -82.3022 92° East 379 436 19,800 1,016 Climbing Cleveland Center
Tue 04:43:26 PM 42.3553 -82.1561 93° East 386 444 20,900 1,016 Climbing Cleveland Center
Tue 04:44:28 PM 42.3486 -82.0064 93° East 392 451 21,900 968 Climbing Cleveland Center
Tue 04:45:30 PM 42.3417 -81.8569 94° East 395 455 22,900 960 Climbing Cleveland Center
Tue 04:46:33 PM 42.3361 -81.7064 93° East 396 456 23,900 960 Climbing Cleveland Center
Tue 04:47:35 PM 42.3275 -81.5314 94° East 396 456 24,900 823 Climbing Cleveland Center
Tue 04:48:37 PM 42.3206 -81.3797 93° East 400 460 25,600 629 Climbing Cleveland Center
Tue 04:49:39 PM 42.3131 -81.2244 94° East 407 468 26,200 532 Climbing Cleveland Center
Tue 04:50:41 PM 42.3047 -81.0675 94° East 414 476 26,700 484 Climbing Cleveland Center
Tue 04:51:43 PM 42.2972 -80.9100 94° East 417 480 27,200 629 Climbing Cleveland Center
Tue 04:52:45 PM 42.2881 -80.7508 94° East 419 482 28,000 871 Climbing Cleveland Center
Tue 04:53:47 PM 42.2800 -80.5953 94° East 413 475 29,000 484 Climbing Cleveland Center
Tue 04:54:49 PM 42.2725 -80.4389 94° East 412 474 29,000  Level Cleveland Center
Tue 04:55:51 PM 42.2608 -80.2469 95° East 433 498 29,000  Level Cleveland Center
Tue 04:56:53 PM 42.2500 -80.0786 95° East 443 510 29,000  Level Cleveland Center
Tue 04:57:56 PM 42.2394 -79.9022 95° East 454 522 29,000  Level Cleveland Center
Tue 04:58:58 PM 42.2311 -79.7333 94° East 457 526 29,000 -435 Level Cleveland Center
Tue 05:00:00 PM 42.2328 -79.5592 89° East 464 534 28,100 -484 Descending Cleveland Center
Tue 05:01:02 PM 42.2347 -79.3806 89° East 476 548 28,000 -48 Descending Cleveland Center
Tue 05:02:04 PM 42.2350 -79.2058 90° East 469 540 28,000  Level Cleveland Center
Tue 05:03:06 PM 42.2364 -78.9942 89° East 471 542 28,000 -48 Level Cleveland Center
Tue 05:04:08 PM 42.2367 -78.8242 90° East 470 541 27,900 -581 Descending Cleveland Center
Tue 05:05:10 PM 42.2378 -78.6450 89° East 476 548 26,800 -1,065 Descending Cleveland Center
Tue 05:06:12 PM 42.2372 -78.4647 90° East 482 555 25,700 -1,161 Descending Cleveland Center
Tue 05:07:14 PM 42.2369 -78.2503 90° East 480 552 24,400 -1,161 Descending Cleveland Center
Tue 05:08:16 PM 42.2367 -78.0758 90° East 473 544 23,300 -1,056 Descending Cleveland Center
Tue 05:09:19 PM 42.2367 -77.9003 90° East 473 544 22,200 -1,345 Descending Cleveland Center
Tue 05:11:01 PM 42.2333 -77.5961 91° East 464 534 19,600 -1,519 Descending New York Center
Tue 05:12:01 PM 42.2306 -77.4250 91° East 459 528 18,100 -1,289 Descending New York Center
Tue 05:13:02 PM 42.2311 -77.2625 90° East 452 520 17,000 -555 Descending New York Center
Tue 05:14:00 PM 42.2294 -77.1000 91° East 441 507 17,000 -454 Level New York Center
Tue 05:15:01 PM 42.2256 -76.9372 92° East 441 507 16,100 -1,450 Descending New York Center
Tue 05:16:00 PM 42.2228 -76.7858 91° East 426 490 14,100 -1,957 Descending New York Center
Tue 05:16:33 PM 42.2233 -76.7289 89° East 378 435 13,100 -2,021 Descending Cleveland Center
Tue 05:17:35 PM 42.2214 -76.5844 91° East 344 396 10,900 -1,887 Descending Cleveland Center
Tue 05:18:37 PM 42.2192 -76.4703 91° East 311 358 9,200 -1,355 Descending Cleveland Center
Tue 05:19:39 PM 42.2161 -76.3572 92° East 289 333 8,100 -1,392 Descending Cleveland Center
Tue 05:20:42 PM 42.2114 -76.2528 93° East 281 323 6,300 -1,728 Descending Cleveland Center
Tue 05:21:44 PM 42.1942 -76.1572 104° East 268 308 4,500 -986 Descending Cleveland Center
Tue 05:23:02 PM 42.1281 -76.0667 135° Southeast 252 290 4,000 -221 Descending New York Center
Tue 05:24:00 PM 42.0717 -76.0203 149° Southeast 236 272 4,000  Level New York Center
Tue 05:25:01 PM 42.0431 -75.9594 122° Southeast 205 236 4,000  Level New York Center
Tue 05:26:00 PM 42.0681 -75.9111 55° Northeast 148 170 4,000 -151 Level New York Center
Tue 05:27:00 PM 42.1122 -75.9033 North 116 133 3,700 -496 Descending New York Center
Tue 05:28:01 PM 42.1467 -75.9283 332° Northwest 111 128 3,000 -744 Descending New York Center
Tue 05:29:01 PM 42.1767 -75.9558 326° Northwest 122 140 2,200 -800 Descending New York Center

Login

Don't have an account? Register now (free) for customized features, flight alerts, and more!